Wabasso, Minnesota
Current Conditions -  °F | °C
As of 2:08 AM on Monday 26 Jan 2015 (Local Time) from KRWF Reporting Station
Overcast Overcast  
Wind Chill: 23°   Ceiling: 3000
Heat Index: 32°   Visibility: 10mi
Dew Point: 30°   Wind: 12mph
Humidity: 92%   Direction: 200°SSW
Pressure: 29.88"   Gusts: NA
Location:  44.4°N, 95.26°W
Report Text: KRWF 260808Z AUTO 20010KT 10SM BKN030 OVC085 00/M01 A2988 RMK AO2 T00001011
Loading
Personal Weather Stations






























Interactive Weather Map New forecast layout! Learn more

10-Day Weather Forecast

Advertisements
Track Severe Weather on mobile